Time;durP1;ratioP1;P1;durP2;ratioP2;P2;SDS_P1;SDS_P2;PMS_P1;PMS_P2;Temp;Humidity;BMP_temperature;BMP_pressure;BME280_temperature;BME280_humidity;BME280_pressure;Samples;Min_cycle;Max_cycle;Signal;HPM_P1;HPM_P2
2022/03/22 00:01:00;;;;;;;;;;;15.90;53.50;;;;;;5095652;28;19928;-68
2022/03/22 00:03:26;;;;;;;;;;;15.90;53.00;;;;;;5094104;28;19924;-67
2022/03/22 00:05:54;;;;;;;;;;;15.90;53.00;;;;;;5095519;28;19927;-67
2022/03/22 00:08:21;;;;;;;;;;;15.80;52.90;;;;;;5110420;28;19977;-68
2022/03/22 00:10:48;;;;;;;;;;;15.80;53.00;;;;;;5096954;28;20274;-68
2022/03/22 00:13:14;;;;;;;;;;;15.80;53.00;;;;;;5095375;28;19924;-67
2022/03/22 00:15:41;;;;;;;;;;;15.80;53.00;;;;;;5094826;28;19930;-68
2022/03/22 00:18:08;;;;;;;;;;;15.80;53.00;;;;;;5107963;28;19924;-68
2022/03/22 00:20:35;;;;;;;;;;;15.80;53.00;;;;;;5114424;28;19924;-68
2022/03/22 00:23:03;;;;;;;;;;;15.80;53.00;;;;;;5114069;28;20275;-67
2022/03/22 00:25:30;;;;;;;;;;;15.80;52.90;;;;;;5115471;28;19934;-67
2022/03/22 00:27:57;;;;;;;;;;;15.80;52.90;;;;;;5103960;28;19930;-68
2022/03/22 00:30:24;;;;;;;;;;;15.80;52.90;;;;;;5094790;28;19931;-67
2022/03/22 00:32:52;;;;;;;;;;;15.70;52.80;;;;;;5093296;28;20379;-67
2022/03/22 00:35:18;;;;;;;;;;;15.70;52.80;;;;;;5094819;28;19924;-68
2022/03/22 00:37:46;;;;;;;;;;;15.70;52.90;;;;;;5103941;28;20000;-67
2022/03/22 00:40:16;;;;;;;;;;;15.70;52.80;;;;;;5114880;28;19924;-68
2022/03/22 00:42:42;;;;;;;;;;;15.70;52.90;;;;;;5114659;28;20415;-67
2022/03/22 00:45:10;;;;;;;;;;;15.70;52.80;;;;;;5113945;28;19924;-66
2022/03/22 00:47:37;;;;;;;;;;;15.70;52.90;;;;;;5106281;28;19924;-68
2022/03/22 00:50:03;;;;;;;;;;;15.70;52.80;;;;;;5095027;28;19979;-68
2022/03/22 00:52:30;;;;;;;;;;;15.70;52.80;;;;;;5093982;28;19935;-67
2022/03/22 00:54:57;;;;;;;;;;;15.70;52.80;;;;;;5093899;28;19928;-68
2022/03/22 00:57:25;;;;;;;;;;;15.70;52.80;;;;;;5100818;28;19930;-68
2022/03/22 01:00:04;;;;;;;;;;;15.80;52.90;;;;;;5114612;28;20563;-68
2022/03/22 01:02:32;;;;;;;;;;;15.70;52.80;;;;;;5114549;28;19923;-68
2022/03/22 01:04:59;;;;;;;;;;;15.70;52.80;;;;;;5114200;28;20019;-68
2022/03/22 01:07:25;;;;;;;;;;;15.70;52.80;;;;;;5108015;28;19924;-68
2022/03/22 01:09:52;;;;;;;;;;;15.80;52.80;;;;;;5094291;28;19924;-67
2022/03/22 01:12:19;;;;;;;;;;;15.80;52.80;;;;;;5094097;28;19931;-67
2022/03/22 01:14:46;;;;;;;;;;;15.80;52.80;;;;;;5093970;28;20414;-68
2022/03/22 01:17:13;;;;;;;;;;;15.70;52.70;;;;;;5098094;28;20292;-68
2022/03/22 01:19:40;;;;;;;;;;;15.80;52.80;;;;;;5114422;28;20287;-67
2022/03/22 01:22:06;;;;;;;;;;;15.70;52.70;;;;;;5113924;28;19938;-67
2022/03/22 01:24:33;;;;;;;;;;;15.70;52.70;;;;;;5114349;28;19923;-67
2022/03/22 01:26:59;;;;;;;;;;;15.70;52.70;;;;;;5111552;28;19932;-68
2022/03/22 01:29:26;;;;;;;;;;;15.70;52.80;;;;;;5093473;28;20421;-67
2022/03/22 01:31:55;;;;;;;;;;;15.70;52.70;;;;;;5093496;28;20403;-67
2022/03/22 01:34:21;;;;;;;;;;;15.70;52.70;;;;;;5093590;28;19928;-67
2022/03/22 01:36:48;;;;;;;;;;;15.70;52.70;;;;;;5094301;28;19924;-68
2022/03/22 01:39:15;;;;;;;;;;;15.70;52.70;;;;;;5114025;28;20310;-66
2022/03/22 01:41:41;;;;;;;;;;;15.70;52.70;;;;;;5113777;28;19923;-67
2022/03/22 01:44:08;;;;;;;;;;;15.70;52.70;;;;;;5113357;28;19924;-67
2022/03/22 01:46:35;;;;;;;;;;;15.60;52.70;;;;;;5113683;28;19924;-68
2022/03/22 01:49:03;;;;;;;;;;;15.70;52.70;;;;;;5094322;28;19924;-68
2022/03/22 01:51:31;;;;;;;;;;;15.60;52.70;;;;;;5093413;28;19928;-68
2022/03/22 01:53:58;;;;;;;;;;;15.60;52.70;;;;;;5092897;28;19931;-68
2022/03/22 01:56:24;;;;;;;;;;;15.60;52.70;;;;;;5092911;28;20296;-67
2022/03/22 01:58:51;;;;;;;;;;;15.60;52.70;;;;;;5110333;28;20510;-68
2022/03/22 02:06:47;;;;;;;;;;;15.60;52.70;;;;;;5112176;28;19924;-68
2022/03/22 02:09:14;;;;;;;;;;;15.60;52.70;;;;;;5093052;28;19931;-67
2022/03/22 02:11:40;;;;;;;;;;;15.60;52.70;;;;;;5092667;28;20375;-67
2022/03/22 02:14:08;;;;;;;;;;;15.60;52.70;;;;;;5092387;28;19924;-67
2022/03/22 02:16:35;;;;;;;;;;;15.60;52.70;;;;;;5092674;28;19931;-68
2022/03/22 02:19:01;;;;;;;;;;;15.60;52.70;;;;;;5111294;28;19924;-68
2022/03/22 02:21:31;;;;;;;;;;;15.60;52.70;;;;;;5113384;28;19935;-67
2022/03/22 02:23:59;;;;;;;;;;;15.60;52.70;;;;;;5111661;28;19924;-67
2022/03/22 02:26:26;;;;;;;;;;;15.60;52.70;;;;;;5113470;28;19930;-68
2022/03/22 02:28:54;;;;;;;;;;;15.60;52.70;;;;;;5094907;28;21312;-68
2022/03/22 02:31:20;;;;;;;;;;;15.60;52.70;;;;;;5093551;28;19928;-68
2022/03/22 02:33:47;;;;;;;;;;;15.60;52.70;;;;;;5092670;28;20007;-67
2022/03/22 02:36:13;;;;;;;;;;;15.60;52.60;;;;;;5092674;28;19924;-68
2022/03/22 02:38:40;;;;;;;;;;;15.60;52.60;;;;;;5107258;28;19931;-68
2022/03/22 02:41:08;;;;;;;;;;;15.60;52.70;;;;;;5112895;28;19930;-68
2022/03/22 02:43:35;;;;;;;;;;;15.60;52.70;;;;;;5112385;28;20402;-67
2022/03/22 02:46:01;;;;;;;;;;;15.70;52.80;;;;;;5112727;28;19924;-68
2022/03/22 02:48:28;;;;;;;;;;;15.70;52.70;;;;;;5099658;28;19928;-68
2022/03/22 02:50:55;;;;;;;;;;;15.70;52.70;;;;;;5092543;28;19924;-66
2022/03/22 02:53:21;;;;;;;;;;;15.70;52.60;;;;;;5092292;28;19930;-67
2022/03/22 02:55:48;;;;;;;;;;;15.70;52.70;;;;;;5091336;28;19930;-68
2022/03/22 02:58:16;;;;;;;;;;;15.70;52.70;;;;;;5103002;28;20014;-67
2022/03/22 03:00:42;;;;;;;;;;;15.70;52.60;;;;;;5111571;28;19930;-68
2022/03/22 03:03:09;;;;;;;;;;;15.70;52.60;;;;;;5112482;28;20479;-68
2022/03/22 03:05:35;;;;;;;;;;;15.70;52.50;;;;;;5112522;28;19923;-67
2022/03/22 03:08:02;;;;;;;;;;;15.80;52.50;;;;;;5103603;28;19924;-68
2022/03/22 03:10:29;;;;;;;;;;;15.80;52.60;;;;;;5092277;28;20423;-68
2022/03/22 03:12:59;;;;;;;;;;;15.80;52.50;;;;;;5091059;28;20399;-67
2022/03/22 03:15:27;;;;;;;;;;;15.80;52.50;;;;;;5092109;28;19932;-68
2022/03/22 03:17:54;;;;;;;;;;;15.80;52.30;;;;;;5101602;28;19928;-67
2022/03/22 03:20:21;;;;;;;;;;;15.80;52.40;;;;;;5116662;28;20330;-68
2022/03/22 03:22:47;;;;;;;;;;;15.80;52.40;;;;;;5116213;28;19935;-67
2022/03/22 03:25:14;;;;;;;;;;;15.80;52.50;;;;;;5116219;28;20380;-68
2022/03/22 03:27:41;;;;;;;;;;;15.80;52.50;;;;;;5110478;28;20296;-67
2022/03/22 03:30:07;;;;;;;;;;;15.80;52.40;;;;;;5095777;28;20284;-68
2022/03/22 03:32:35;;;;;;;;;;;15.80;52.50;;;;;;5095686;28;19924;-67
2022/03/22 03:35:02;;;;;;;;;;;15.80;52.50;;;;;;5095833;28;19930;-67
2022/03/22 03:37:30;;;;;;;;;;;15.80;52.40;;;;;;5112915;28;20398;-67
2022/03/22 03:39:57;;;;;;;;;;;15.80;52.40;;;;;;5115112;28;19931;-67
2022/03/22 03:42:22;;;;;;;;;;;15.80;52.30;;;;;;5115886;28;19930;-68
2022/03/22 03:47:34;;;;;;;;;;;15.80;52.30;;;;;;5097743;28;19920;-67
2022/03/22 03:50:03;;;;;;;;;;;15.90;52.30;;;;;;5095402;28;19974;-67
2022/03/22 03:52:30;;;;;;;;;;;15.80;52.20;;;;;;5095320;28;20369;-68
2022/03/22 03:54:56;;;;;;;;;;;15.80;52.20;;;;;;5095307;28;20006;-66
2022/03/22 03:57:23;;;;;;;;;;;15.80;52.20;;;;;;5111559;28;19944;-67
2022/03/22 03:59:50;;;;;;;;;;;15.80;52.20;;;;;;5115561;28;19970;-68
2022/03/22 04:02:17;;;;;;;;;;;15.80;52.20;;;;;;5115365;28;19934;-68
2022/03/22 04:04:44;;;;;;;;;;;15.80;52.20;;;;;;5115528;28;20307;-68
2022/03/22 04:07:12;;;;;;;;;;;15.80;52.20;;;;;;5100870;28;20449;-66
2022/03/22 04:09:39;;;;;;;;;;;15.80;52.20;;;;;;5094024;28;20399;-67
2022/03/22 04:12:06;;;;;;;;;;;15.80;52.20;;;;;;5095436;28;19971;-68
2022/03/22 04:14:33;;;;;;;;;;;15.80;52.20;;;;;;5100525;28;20022;-67
2022/03/22 04:16:59;;;;;;;;;;;15.70;52.10;;;;;;5115668;28;20328;-67
2022/03/22 04:19:26;;;;;;;;;;;15.20;51.80;;;;;;5115424;28;20012;-68
2022/03/22 04:21:53;;;;;;;;;;;15.70;52.00;;;;;;5114005;28;19930;-68
2022/03/22 04:24:21;;;;;;;;;;;15.70;52.00;;;;;;5111121;28;20384;-67
2022/03/22 04:26:47;;;;;;;;;;;15.70;52.10;;;;;;5094827;28;19924;-66
2022/03/22 04:34:43;;;;;;;;;;;15.70;52.20;;;;;;5101795;28;19920;-67
2022/03/22 04:37:12;;;;;;;;;;;15.70;52.00;;;;;;5115443;28;19923;-68
2022/03/22 04:39:41;;;;;;;;;;;15.60;52.00;;;;;;5114895;28;20376;-68
2022/03/22 04:42:08;;;;;;;;;;;15.70;52.10;;;;;;5113744;28;19931;-68
2022/03/22 04:44:35;;;;;;;;;;;15.70;52.30;;;;;;5109466;28;19947;-68
2022/03/22 04:47:02;;;;;;;;;;;15.60;52.20;;;;;;5094500;28;19977;-68
2022/03/22 04:49:29;;;;;;;;;;;15.70;52.30;;;;;;5094930;28;19973;-68
2022/03/22 04:57:25;;;;;;;;;;;15.70;52.10;;;;;;5114670;28;19924;-68
2022/03/22 04:59:52;;;;;;;;;;;15.70;52.30;;;;;;5114979;28;19928;-67
2022/03/22 05:02:19;;;;;;;;;;;15.70;52.20;;;;;;5114376;28;19924;-68
2022/03/22 05:04:46;;;;;;;;;;;15.70;52.10;;;;;;5107327;28;19924;-68
2022/03/22 05:07:12;;;;;;;;;;;15.70;52.10;;;;;;5094331;28;19924;-66
2022/03/22 05:09:40;;;;;;;;;;;15.70;52.00;;;;;;5093898;28;19924;-67
2022/03/22 05:12:13;;;;;;;;;;;15.70;52.10;;;;;;5093924;28;19931;-68
2022/03/22 05:14:40;;;;;;;;;;;15.70;52.10;;;;;;5099270;28;19976;-68
2022/03/22 05:17:07;;;;;;;;;;;15.70;52.10;;;;;;5114236;28;19924;-67
2022/03/22 05:19:33;;;;;;;;;;;15.70;52.10;;;;;;5114765;28;19923;-68
2022/03/22 05:22:01;;;;;;;;;;;15.70;52.00;;;;;;5114390;28;19932;-68
2022/03/22 05:24:27;;;;;;;;;;;15.70;52.10;;;;;;5110379;28;19931;-67
2022/03/22 05:26:55;;;;;;;;;;;15.60;52.00;;;;;;5093973;28;19930;-68
2022/03/22 05:29:22;;;;;;;;;;;15.60;52.70;;;;;;5093601;28;19982;-68
2022/03/22 05:31:48;;;;;;;;;;;15.60;52.10;;;;;;5093804;28;19930;-68
2022/03/22 05:34:15;;;;;;;;;;;15.60;52.10;;;;;;5094663;28;19930;-68
2022/03/22 05:36:42;;;;;;;;;;;15.60;52.00;;;;;;5113918;28;19927;-68
2022/03/22 05:39:08;;;;;;;;;;;15.60;52.00;;;;;;5112551;28;19930;-68
2022/03/22 05:41:35;;;;;;;;;;;15.60;52.50;;;;;;5112844;28;19930;-68
2022/03/22 05:44:03;;;;;;;;;;;15.60;52.10;;;;;;5113231;28;19923;-67
2022/03/22 05:46:31;;;;;;;;;;;15.60;52.10;;;;;;5092175;28;20045;-68
2022/03/22 05:48:58;;;;;;;;;;;15.60;51.90;;;;;;5093708;28;20339;-68
2022/03/22 05:51:24;;;;;;;;;;;15.60;51.90;;;;;;5092279;28;20296;-68
2022/03/22 05:53:51;;;;;;;;;;;15.60;51.90;;;;;;5093027;28;20292;-68
2022/03/22 05:56:17;;;;;;;;;;;15.60;51.90;;;;;;5111507;28;20450;-69
2022/03/22 05:58:44;;;;;;;;;;;15.60;52.00;;;;;;5113714;28;20315;-68
2022/03/22 06:01:12;;;;;;;;;;;15.60;52.00;;;;;;5113892;28;19930;-68
2022/03/22 06:03:38;;;;;;;;;;;15.60;51.90;;;;;;5113113;28;19924;-68
2022/03/22 06:06:05;;;;;;;;;;;15.60;51.80;;;;;;5096470;28;19924;-68
2022/03/22 06:08:31;;;;;;;;;;;15.60;51.90;;;;;;5091885;28;20525;-68
2022/03/22 06:10:58;;;;;;;;;;;15.60;52.00;;;;;;5092547;28;20398;-68
2022/03/22 06:13:25;;;;;;;;;;;15.60;52.00;;;;;;5092562;28;19924;-68
2022/03/22 06:15:52;;;;;;;;;;;15.60;52.00;;;;;;5106901;28;19934;-68
2022/03/22 06:18:19;;;;;;;;;;;15.60;52.00;;;;;;5113180;28;19946;-67
2022/03/22 06:20:46;;;;;;;;;;;15.60;52.00;;;;;;5100109;28;19924;-66
2022/03/22 06:23:13;;;;;;;;;;;15.60;51.80;;;;;;5109142;28;19963;-68
2022/03/22 06:25:40;;;;;;;;;;;15.60;51.70;;;;;;5112908;28;19923;-68
2022/03/22 06:28:09;;;;;;;;;;;15.60;51.70;;;;;;5112876;28;20296;-67
2022/03/22 06:30:35;;;;;;;;;;;15.60;51.70;;;;;;5113140;28;19927;-68
2022/03/22 06:33:02;;;;;;;;;;;15.60;51.70;;;;;;5097235;28;19934;-68
2022/03/22 06:35:31;;;;;;;;;;;15.60;51.70;;;;;;5092463;28;19924;-68
2022/03/22 06:37:58;;;;;;;;;;;15.60;51.70;;;;;;5091105;28;20349;-68
2022/03/22 06:40:27;;;;;;;;;;;15.70;51.70;;;;;;5092457;28;19932;-68
2022/03/22 06:42:54;;;;;;;;;;;15.60;51.60;;;;;;5105790;28;19924;-68
2022/03/22 06:45:21;;;;;;;;;;;15.60;51.60;;;;;;5112766;28;19924;-67
2022/03/22 06:47:48;;;;;;;;;;;15.70;51.70;;;;;;5113029;28;19923;-68
2022/03/22 06:50:15;;;;;;;;;;;15.70;51.70;;;;;;5112841;28;19985;-69
2022/03/22 06:52:43;;;;;;;;;;;15.70;51.60;;;;;;5101306;28;19924;-68
2022/03/22 06:55:11;;;;;;;;;;;15.70;51.60;;;;;;5096515;28;19931;-68
2022/03/22 06:57:38;;;;;;;;;;;15.60;51.50;;;;;;5097192;28;19924;-67
2022/03/22 07:00:05;;;;;;;;;;;15.70;51.50;;;;;;5096732;28;19947;-67
2022/03/22 07:02:32;;;;;;;;;;;15.80;51.50;;;;;;5104909;28;19924;-68
2022/03/22 07:04:59;;;;;;;;;;;15.80;51.50;;;;;;5115875;28;19924;-68
2022/03/22 07:07:26;;;;;;;;;;;15.80;51.50;;;;;;5116975;28;19924;-67
2022/03/22 07:09:54;;;;;;;;;;;15.80;51.40;;;;;;5116526;28;20380;-68
2022/03/22 07:12:20;;;;;;;;;;;15.80;51.40;;;;;;5108316;28;20299;-68
2022/03/22 07:14:47;;;;;;;;;;;15.80;51.50;;;;;;5096566;28;20300;-68
2022/03/22 07:17:13;;;;;;;;;;;15.80;51.50;;;;;;5096538;28;20015;-67
2022/03/22 07:19:40;;;;;;;;;;;15.70;51.50;;;;;;5112071;28;19930;-66
2022/03/22 07:22:07;;;;;;;;;;;15.80;51.50;;;;;;5105652;28;19998;-68
2022/03/22 07:24:33;;;;;;;;;;;15.80;51.60;;;;;;5112235;28;20391;-67
2022/03/22 07:27:01;;;;;;;;;;;15.80;51.70;;;;;;5110916;28;19924;-68
2022/03/22 07:29:28;;;;;;;;;;;15.90;51.70;;;;;;5105372;28;19931;-67
2022/03/22 07:31:56;;;;;;;;;;;15.80;51.60;;;;;;5109008;28;19978;-67
2022/03/22 07:34:23;;;;;;;;;;;15.90;51.70;;;;;;5095588;28;20436;-68
2022/03/22 07:36:52;;;;;;;;;;;15.90;51.70;;;;;;5094937;28;19924;-68
2022/03/22 07:39:19;;;;;;;;;;;15.90;51.70;;;;;;5095996;28;19924;-66
2022/03/22 07:41:46;;;;;;;;;;;16.00;51.80;;;;;;5098354;28;19924;-68
2022/03/22 07:44:15;;;;;;;;;;;16.00;51.80;;;;;;5116113;28;20349;-67
2022/03/22 07:46:41;;;;;;;;;;;16.00;51.70;;;;;;5110213;28;19969;-68
2022/03/22 07:54:39;;;;;;;;;;;16.10;51.70;;;;;;5095614;28;19920;-68
2022/03/22 07:57:07;;;;;;;;;;;16.20;51.70;;;;;;5095566;28;19924;-68
2022/03/22 07:59:35;;;;;;;;;;;16.20;51.60;;;;;;5095327;28;19957;-68
2022/03/22 08:02:01;;;;;;;;;;;16.30;51.60;;;;;;5100875;28;20341;-68
2022/03/22 08:04:28;;;;;;;;;;;16.20;51.50;;;;;;5104837;28;20288;-68
2022/03/22 08:06:54;;;;;;;;;;;16.30;51.60;;;;;;5105482;28;20481;-68
2022/03/22 08:09:21;;;;;;;;;;;16.30;51.50;;;;;;5103453;28;20305;-68
2022/03/22 08:11:48;;;;;;;;;;;16.40;51.50;;;;;;5095475;28;19924;-68
2022/03/22 08:14:14;;;;;;;;;;;16.40;51.50;;;;;;5094928;28;19938;-68
2022/03/22 08:16:42;;;;;;;;;;;16.40;51.40;;;;;;5095114;28;19934;-68
2022/03/22 08:19:11;;;;;;;;;;;16.50;51.50;;;;;;5095339;28;20005;-68
2022/03/22 08:21:38;;;;;;;;;;;16.50;51.40;;;;;;5106694;28;19969;-67
2022/03/22 08:24:05;;;;;;;;;;;16.50;51.40;;;;;;5114826;28;19924;-67
2022/03/22 08:26:32;;;;;;;;;;;16.50;51.40;;;;;;5115427;28;20377;-66
2022/03/22 08:28:59;;;;;;;;;;;16.50;51.30;;;;;;5115255;28;19924;-67
2022/03/22 08:31:26;;;;;;;;;;;16.60;51.30;;;;;;5115635;28;20273;-66
2022/03/22 08:33:56;;;;;;;;;;;16.60;51.30;;;;;;5109021;28;20296;-66
2022/03/22 08:36:23;;;;;;;;;;;16.60;51.30;;;;;;5094801;28;19924;-67
2022/03/22 08:38:49;;;;;;;;;;;16.60;51.20;;;;;;5096126;28;19924;-68
2022/03/22 08:41:16;;;;;;;;;;;16.70;51.30;;;;;;5108296;28;19930;-67
2022/03/22 08:43:43;;;;;;;;;;;16.70;51.20;;;;;;5102526;28;19930;-68
2022/03/22 08:46:11;;;;;;;;;;;16.70;51.20;;;;;;5094555;28;19924;-68
2022/03/22 08:48:38;;;;;;;;;;;16.70;51.10;;;;;;5093276;28;19924;-68
2022/03/22 08:51:06;;;;;;;;;;;16.70;51.10;;;;;;5107208;28;20299;-67
2022/03/22 08:53:32;;;;;;;;;;;16.80;51.10;;;;;;5094200;28;19924;-67
2022/03/22 08:56:02;;;;;;;;;;;16.80;51.10;;;;;;5102734;28;20404;-68
2022/03/22 08:58:29;;;;;;;;;;;16.80;51.00;;;;;;5114664;28;19974;-68
2022/03/22 09:00:56;;;;;;;;;;;16.90;51.00;;;;;;5113766;28;19978;-68
2022/03/22 09:03:24;;;;;;;;;;;16.90;51.00;;;;;;5111279;28;19924;-66
2022/03/22 09:06:08;;;;;;;;;;;16.90;51.00;;;;;;5100435;28;19985;-66
2022/03/22 09:08:36;;;;;;;;;;;16.90;50.90;;;;;;5105140;28;20364;-68
2022/03/22 09:11:02;;;;;;;;;;;16.90;51.00;;;;;;5101871;28;20019;-68
2022/03/22 09:13:29;;;;;;;;;;;16.90;51.20;;;;;;5109585;28;19930;-66
2022/03/22 09:15:56;;;;;;;;;;;17.00;51.30;;;;;;5112789;28;19931;-66
2022/03/22 09:18:22;;;;;;;;;;;17.00;51.20;;;;;;5110475;28;20439;-67
2022/03/22 09:20:49;;;;;;;;;;;17.00;51.30;;;;;;5108454;28;20287;-66
2022/03/22 09:23:16;;;;;;;;;;;17.00;51.20;;;;;;5103007;28;19930;-68
2022/03/22 09:25:44;;;;;;;;;;;17.10;51.20;;;;;;5092713;28;19924;-68
2022/03/22 09:28:10;;;;;;;;;;;17.10;51.10;;;;;;5100391;28;19924;-68
2022/03/22 09:30:38;;;;;;;;;;;17.10;51.00;;;;;;5102318;28;19924;-67
2022/03/22 09:33:04;;;;;;;;;;;17.10;51.00;;;;;;5104196;28;19947;-68
2022/03/22 09:35:31;;;;;;;;;;;17.10;51.00;;;;;;5099028;28;19931;-67
2022/03/22 09:37:59;;;;;;;;;;;17.10;50.90;;;;;;5100160;28;19939;-67
2022/03/22 09:40:26;;;;;;;;;;;17.20;50.90;;;;;;5099552;28;19928;-68
2022/03/22 09:42:54;;;;;;;;;;;17.20;50.90;;;;;;5103268;28;19924;-68
2022/03/22 09:45:24;;;;;;;;;;;17.20;50.90;;;;;;5100611;28;20015;-68
2022/03/22 09:47:50;;;;;;;;;;;17.20;50.90;;;;;;5096750;28;19928;-67
2022/03/22 09:50:17;;;;;;;;;;;17.20;50.90;;;;;;5104672;28;19930;-68
2022/03/22 09:52:44;;;;;;;;;;;17.20;50.90;;;;;;5107391;28;19938;-66
2022/03/22 09:55:11;;;;;;;;;;;17.10;50.80;;;;;;5101068;28;19930;-68
2022/03/22 09:57:38;;;;;;;;;;;17.20;50.90;;;;;;5102209;28;20022;-68
2022/03/22 10:00:06;;;;;;;;;;;17.20;50.90;;;;;;5092598;28;19987;-68
2022/03/22 10:02:35;;;;;;;;;;;17.10;50.90;;;;;;5092170;28;19930;-68
2022/03/22 10:05:01;;;;;;;;;;;17.20;50.90;;;;;;5097153;28;19927;-68
2022/03/22 10:07:30;;;;;;;;;;;17.20;50.90;;;;;;5102682;28;19924;-68
2022/03/22 10:09:58;;;;;;;;;;;17.10;50.90;;;;;;5099128;28;19924;-68
2022/03/22 10:12:28;;;;;;;;;;;17.10;50.80;;;;;;5100797;28;20018;-67
2022/03/22 10:14:54;;;;;;;;;;;17.10;50.90;;;;;;5113195;28;19930;-67
2022/03/22 10:17:22;;;;;;;;;;;17.10;50.80;;;;;;5112445;28;19924;-66
2022/03/22 10:19:49;;;;;;;;;;;17.10;50.90;;;;;;5099886;28;19930;-66
2022/03/22 10:22:17;;;;;;;;;;;17.10;51.50;;;;;;5099886;28;20066;-68
2022/03/22 10:24:47;;;;;;;;;;;17.10;50.90;;;;;;5112911;28;19923;-68
2022/03/22 10:27:23;;;;;;;;;;;17.10;50.90;;;;;;5107770;28;20014;-67
2022/03/22 10:29:50;;;;;;;;;;;17.10;50.90;;;;;;5110897;28;19930;-68
2022/03/22 10:32:17;;;;;;;;;;;17.10;50.90;;;;;;5092409;28;20437;-67
2022/03/22 10:34:44;;;;;;;;;;;17.10;50.90;;;;;;5098953;28;19978;-68
2022/03/22 10:37:11;;;;;;;;;;;17.10;50.90;;;;;;5111822;28;19930;-68
2022/03/22 10:39:40;;;;;;;;;;;17.10;50.90;;;;;;5112688;28;19930;-66
2022/03/22 10:42:07;;;;;;;;;;;17.10;50.90;;;;;;5092530;28;19924;-68
2022/03/22 10:44:35;;;;;;;;;;;17.10;51.00;;;;;;5093743;28;20015;-68
2022/03/22 10:47:02;;;;;;;;;;;17.10;50.90;;;;;;5106841;28;19923;-67
2022/03/22 10:49:29;;;;;;;;;;;17.10;50.90;;;;;;5112821;28;20388;-68
2022/03/22 10:51:57;;;;;;;;;;;17.10;50.90;;;;;;5093734;28;20300;-67
2022/03/22 10:54:24;;;;;;;;;;;17.20;51.00;;;;;;5106473;28;19934;-68
2022/03/22 10:56:51;;;;;;;;;;;17.20;51.00;;;;;;5112692;28;19930;-68
2022/03/22 10:59:18;;;;;;;;;;;17.20;50.90;;;;;;5097775;28;19924;-68
2022/03/22 11:01:46;;;;;;;;;;;17.20;50.90;;;;;;5104692;28;19923;-68
2022/03/22 11:04:15;;;;;;;;;;;17.30;51.00;;;;;;5091961;28;20378;-68
2022/03/22 11:06:41;;;;;;;;;;;17.30;50.90;;;;;;5100275;28;19923;-68
2022/03/22 11:09:09;;;;;;;;;;;17.30;50.90;;;;;;5101762;28;19946;-67
2022/03/22 11:11:36;;;;;;;;;;;17.30;50.90;;;;;;5096585;28;19985;-68
2022/03/22 11:14:03;;;;;;;;;;;17.30;50.80;;;;;;5110212;28;19928;-67
2022/03/22 11:16:30;;;;;;;;;;;17.40;50.90;;;;;;5108053;28;19946;-66
2022/03/22 11:18:58;;;;;;;;;;;17.40;50.80;;;;;;5098553;28;19927;-67
2022/03/22 11:21:25;;;;;;;;;;;17.40;50.80;;;;;;5104545;28;20010;-67
2022/03/22 11:23:52;;;;;;;;;;;17.40;50.70;;;;;;5101336;28;19925;-68
2022/03/22 11:26:22;;;;;;;;;;;17.40;50.70;;;;;;5093301;28;20036;-67
2022/03/22 11:28:49;;;;;;;;;;;17.40;50.70;;;;;;5112263;28;19970;-68
2022/03/22 11:31:18;;;;;;;;;;;17.50;50.90;;;;;;5099952;28;19924;-68
2022/03/22 11:36:31;;;;;;;;;;;17.60;51.00;;;;;;5102889;28;19920;-68
2022/03/22 11:38:59;;;;;;;;;;;17.60;51.00;;;;;;5111410;28;19963;-67
2022/03/22 11:44:16;;;;;;;;;;;17.60;50.90;;;;;;5096577;28;19997;-68
2022/03/22 11:46:42;;;;;;;;;;;17.70;51.00;;;;;;5095610;28;19931;-67
2022/03/22 11:49:13;;;;;;;;;;;17.70;50.90;;;;;;5110361;28;19924;-67
2022/03/22 11:51:47;;;;;;;;;;;17.70;50.90;;;;;;5100540;28;20393;-67
2022/03/22 11:54:14;;;;;;;;;;;17.70;50.90;;;;;;5095818;28;20361;-67
2022/03/22 11:56:46;;;;;;;;;;;17.80;50.90;;;;;;5110156;28;19924;-68
2022/03/22 11:59:15;;;;;;;;;;;17.80;50.90;;;;;;5115918;28;20303;-68
2022/03/22 12:01:41;;;;;;;;;;;17.80;50.90;;;;;;5116015;28;19928;-67
2022/03/22 12:04:14;;;;;;;;;;;17.80;50.90;;;;;;5102638;28;20277;-68
2022/03/22 12:06:40;;;;;;;;;;;17.80;50.90;;;;;;5109807;28;20288;-68
2022/03/22 12:09:07;;;;;;;;;;;17.80;50.80;;;;;;5115382;28;20284;-68
2022/03/22 12:11:35;;;;;;;;;;;17.90;50.80;;;;;;5102244;28;19930;-68
2022/03/22 12:14:04;;;;;;;;;;;17.90;50.80;;;;;;5115209;28;19994;-68
2022/03/22 12:16:31;;;;;;;;;;;17.90;50.80;;;;;;5104938;28;19947;-68
2022/03/22 12:18:59;;;;;;;;;;;17.90;50.80;;;;;;5108726;28;19967;-67
2022/03/22 12:21:26;;;;;;;;;;;17.90;50.80;;;;;;5100611;28;20015;-66
2022/03/22 12:23:54;;;;;;;;;;;17.90;50.80;;;;;;5115219;28;19931;-66
2022/03/22 12:26:21;;;;;;;;;;;17.90;50.70;;;;;;5103100;28;19931;-66
2022/03/22 12:28:48;;;;;;;;;;;18.00;50.70;;;;;;5104372;28;19930;-67
2022/03/22 12:31:20;;;;;;;;;;;18.00;50.70;;;;;;5112615;28;19931;-67
2022/03/22 12:33:50;;;;;;;;;;;18.00;50.70;;;;;;5094766;28;19924;-66
2022/03/22 12:36:17;;;;;;;;;;;18.00;50.70;;;;;;5105687;28;19924;-67
2022/03/22 12:38:43;;;;;;;;;;;18.00;50.60;;;;;;5115073;28;19924;-67
2022/03/22 12:41:10;;;;;;;;;;;18.00;50.70;;;;;;5114910;28;19946;-65
2022/03/22 12:43:37;;;;;;;;;;;18.00;50.70;;;;;;5114213;28;19924;-67
2022/03/22 12:46:04;;;;;;;;;;;18.00;50.70;;;;;;5105342;28;20380;-67
2022/03/22 12:48:31;;;;;;;;;;;18.00;50.70;;;;;;5094156;28;20434;-66
2022/03/22 12:50:58;;;;;;;;;;;18.00;50.70;;;;;;5093956;28;19924;-66
2022/03/22 12:53:25;;;;;;;;;;;18.00;50.70;;;;;;5094271;28;19924;-66
2022/03/22 12:55:51;;;;;;;;;;;18.00;50.70;;;;;;5095926;28;19928;-66
2022/03/22 12:58:24;;;;;;;;;;;18.00;50.70;;;;;;5094617;28;19930;-67
2022/03/22 13:00:51;;;;;;;;;;;18.00;50.70;;;;;;5094296;28;19924;-67
2022/03/22 13:03:17;;;;;;;;;;;18.00;50.70;;;;;;5094076;28;19931;-67
2022/03/22 13:05:47;;;;;;;;;;;18.00;50.70;;;;;;5099576;28;20014;-66
2022/03/22 13:08:14;;;;;;;;;;;18.00;50.70;;;;;;5114177;28;19923;-67
2022/03/22 13:16:20;;;;;;;;;;;18.00;50.70;;;;;;5104007;28;19919;-68
2022/03/22 13:18:48;;;;;;;;;;;18.00;50.70;;;;;;5104747;28;19928;-67
2022/03/22 13:21:16;;;;;;;;;;;18.00;50.70;;;;;;5094037;28;19930;-67
2022/03/22 13:23:42;;;;;;;;;;;18.00;50.70;;;;;;5102399;28;20376;-67
2022/03/22 13:26:15;;;;;;;;;;;18.00;50.70;;;;;;5112404;28;20420;-68
2022/03/22 13:28:44;;;;;;;;;;;18.00;50.80;;;;;;5108060;28;19931;-67
2022/03/22 13:31:11;;;;;;;;;;;18.00;50.90;;;;;;5093874;28;20304;-68
2022/03/22 13:33:38;;;;;;;;;;;18.00;50.90;;;;;;5100440;28;19931;-67
2022/03/22 13:36:04;;;;;;;;;;;18.00;50.80;;;;;;5105791;28;19928;-67
2022/03/22 13:38:33;;;;;;;;;;;18.00;50.80;;;;;;5113173;28;19976;-67
2022/03/22 13:41:03;;;;;;;;;;;18.00;50.80;;;;;;5113869;28;19927;-68
2022/03/22 13:43:30;;;;;;;;;;;18.00;50.80;;;;;;5105473;28;20568;-68
2022/03/22 13:45:58;;;;;;;;;;;18.00;50.80;;;;;;5100181;28;19965;-67
2022/03/22 13:48:25;;;;;;;;;;;18.00;50.80;;;;;;5103029;28;20006;-67
2022/03/22 13:50:52;;;;;;;;;;;17.90;50.70;;;;;;5113873;28;19924;-67
2022/03/22 13:53:19;;;;;;;;;;;17.90;50.80;;;;;;5106252;28;20394;-67
2022/03/22 13:55:47;;;;;;;;;;;17.90;50.80;;;;;;5096655;28;20383;-67
2022/03/22 13:58:14;;;;;;;;;;;17.90;50.80;;;;;;5093352;28;19959;-67
2022/03/22 14:00:41;;;;;;;;;;;17.90;50.80;;;;;;5100070;28;19924;-68
2022/03/22 14:03:08;;;;;;;;;;;17.90;50.80;;;;;;5093910;28;20296;-68
2022/03/22 14:05:35;;;;;;;;;;;17.90;51.40;;;;;;5096448;28;19924;-67
2022/03/22 14:08:02;;;;;;;;;;;17.90;50.80;;;;;;5093587;28;20455;-67
2022/03/22 14:10:29;;;;;;;;;;;17.90;50.80;;;;;;5102426;28;19923;-67
2022/03/22 14:12:57;;;;;;;;;;;17.80;50.90;;;;;;5103081;28;19924;-67
2022/03/22 14:15:24;;;;;;;;;;;17.80;50.80;;;;;;5094526;28;19924;-67
2022/03/22 14:17:51;;;;;;;;;;;17.80;50.90;;;;;;5113565;28;19924;-66
2022/03/22 14:20:18;;;;;;;;;;;17.80;50.90;;;;;;5113253;28;19928;-67
2022/03/22 14:22:46;;;;;;;;;;;17.90;50.90;;;;;;5112891;28;19924;-67
2022/03/22 14:25:13;;;;;;;;;;;17.80;50.90;;;;;;5110104;28;19923;-67
2022/03/22 14:27:39;;;;;;;;;;;17.80;50.90;;;;;;5112445;28;20332;-67
2022/03/22 14:30:14;;;;;;;;;;;17.80;50.90;;;;;;5092833;28;20407;-66
2022/03/22 14:32:40;;;;;;;;;;;17.80;51.00;;;;;;5092450;28;19951;-68
2022/03/22 14:37:51;;;;;;;;;;;17.80;51.10;;;;;;5092461;28;19920;-68
2022/03/22 14:40:18;;;;;;;;;;;17.80;51.10;;;;;;5092848;28;19924;-68
2022/03/22 14:42:45;;;;;;;;;;;17.80;51.10;;;;;;5094910;28;19924;-68
2022/03/22 14:45:12;;;;;;;;;;;17.80;51.10;;;;;;5113039;28;20239;-68
2022/03/22 14:47:39;;;;;;;;;;;17.80;51.10;;;;;;5093248;28;19924;-67
2022/03/22 14:50:06;;;;;;;;;;;17.80;51.10;;;;;;5092687;28;19931;-67
2022/03/22 14:55:17;;;;;;;;;;;17.80;51.10;;;;;;5093858;28;20289;-67
2022/03/22 15:00:29;;;;;;;;;;;17.80;51.40;;;;;;5091763;28;19920;-65